createdAt,value
2023-02-23T00:02:20.878Z,100119.45
2023-02-23T00:04:49.094Z,100120.80
2023-02-23T00:07:20.140Z,100127.36
2023-02-23T00:09:48.440Z,100127.97
2023-02-23T00:12:17.356Z,100127.88
2023-02-23T00:14:46.319Z,100128.80
2023-02-23T00:17:17.728Z,100124.88
2023-02-23T00:19:47.899Z,100129.10
2023-02-23T00:22:15.961Z,100128.41
2023-02-23T00:24:47.096Z,100126.73
2023-02-23T00:27:18.703Z,100128.53
2023-02-23T00:29:49.754Z,100130.67
2023-02-23T00:32:20.155Z,100133.80
2023-02-23T00:34:49.990Z,100136.55
2023-02-23T00:37:18.673Z,100137.98
2023-02-23T00:39:50.232Z,100141.86
2023-02-23T00:42:18.382Z,100142.98
2023-02-23T00:44:48.840Z,100144.17
2023-02-23T00:47:17.236Z,100146.73
2023-02-23T00:49:45.709Z,100147.66
2023-02-23T00:52:14.901Z,100149.75
2023-02-23T00:54:43.482Z,100153.02
2023-02-23T00:57:11.966Z,100152.80
2023-02-23T00:59:40.345Z,100159.64
2023-02-23T01:02:08.448Z,100161.73
2023-02-23T01:04:36.575Z,100164.70
2023-02-23T01:07:06.750Z,100167.04
2023-02-23T01:09:35.398Z,100166.59
2023-02-23T01:12:07.688Z,100167.48
2023-02-23T01:14:38.164Z,100170.39
2023-02-23T01:17:07.710Z,100173.73
2023-02-23T01:19:38.263Z,100174.11
2023-02-23T01:22:06.727Z,100176.80
2023-02-23T01:24:35.464Z,100180.35
2023-02-23T01:27:06.364Z,100185.86
2023-02-23T01:29:36.372Z,100189.36
2023-02-23T01:32:05.560Z,100190.27
2023-02-23T01:34:36.300Z,100192.52
2023-02-23T01:37:04.578Z,100192.48
2023-02-23T01:39:32.805Z,100195.22
2023-02-23T01:42:23.050Z,100191.75
2023-02-23T01:44:54.299Z,100194.42
2023-02-23T01:47:23.301Z,100196.62
2023-02-23T01:49:51.675Z,100201.06
2023-02-23T01:52:19.760Z,100206.63
2023-02-23T01:54:52.120Z,100206.64
2023-02-23T01:57:25.158Z,100207.25
2023-02-23T01:59:54.929Z,100205.66
2023-02-23T02:02:32.972Z,100210.79
2023-02-23T02:05:04.690Z,100216.58
2023-02-23T02:07:35.451Z,100215.04
2023-02-23T02:10:12.412Z,100219.76
2023-02-23T02:12:53.796Z,100224.94
2023-02-23T02:15:26.089Z,100225.82
2023-02-23T02:18:03.504Z,100229.54
2023-02-23T02:21:06.350Z,100230.20
2023-02-23T02:23:50.088Z,100230.60
2023-02-23T02:26:21.135Z,100231.83
2023-02-23T02:29:09.119Z,100237.95
2023-02-23T02:31:50.666Z,100236.38
2023-02-23T02:34:42.698Z,100241.02
2023-02-23T02:37:19.207Z,100244.45
2023-02-23T02:40:16.465Z,100244.02
2023-02-23T02:43:15.356Z,100250.31
2023-02-23T02:46:29.858Z,100252.89
2023-02-23T02:49:26.799Z,100258.50
2023-02-23T02:52:06.032Z,100263.98
2023-02-23T02:54:44.796Z,100261.70
2023-02-23T02:57:12.869Z,100262.06
2023-02-23T03:00:04.600Z,100262.66
2023-02-23T03:02:59.300Z,100266.16
2023-02-23T03:06:09.488Z,100265.42
2023-02-23T03:09:14.926Z,100269.14
2023-02-23T03:12:11.141Z,100271.73
2023-02-23T03:15:40.790Z,100268.86
2023-02-23T03:18:46.624Z,100275.27
2023-02-23T03:21:43.066Z,100281.81
2023-02-23T03:24:52.404Z,100279.85
2023-02-23T03:27:46.071Z,100284.45
2023-02-23T03:30:43.445Z,100285.70
2023-02-23T03:33:41.714Z,100289.13
2023-02-23T03:36:34.978Z,100287.55
2023-02-23T03:39:56.815Z,100290.88
2023-02-23T03:42:47.010Z,100292.12
2023-02-23T03:45:35.284Z,100297.70
2023-02-23T03:48:23.300Z,100299.54
2023-02-23T03:51:13.075Z,100302.94
2023-02-23T03:54:10.952Z,100304.30
2023-02-23T03:57:00.979Z,100301.33
2023-02-23T03:59:52.871Z,100301.36
2023-02-23T04:02:40.199Z,100307.33
2023-02-23T04:05:29.880Z,100312.16
2023-02-23T04:08:17.202Z,100313.85
2023-02-23T04:11:17.054Z,100314.18
2023-02-23T04:13:46.895Z,100312.52
2023-02-23T04:16:19.474Z,100313.63
2023-02-23T04:18:49.014Z,100315.27
2023-02-23T04:21:17.412Z,100318.66
2023-02-23T04:23:46.696Z,100316.24
2023-02-23T04:26:15.083Z,100320.67
2023-02-23T04:28:43.458Z,100320.27
2023-02-23T04:31:11.653Z,100325.09
2023-02-23T04:33:41.036Z,100328.24
2023-02-23T04:36:09.321Z,100330.23
2023-02-23T04:38:39.144Z,100335.09
2023-02-23T04:41:07.545Z,100333.78
2023-02-23T04:43:41.853Z,100336.15
2023-02-23T04:46:09.975Z,100339.80
2023-02-23T04:48:38.697Z,100341.46
2023-02-23T04:51:07.095Z,100341.10
2023-02-23T04:53:35.295Z,100342.48
2023-02-23T04:56:04.258Z,100345.24
2023-02-23T04:58:32.734Z,100346.37
2023-02-23T05:01:07.833Z,100352.94
2023-02-23T05:03:36.664Z,100349.47
2023-02-23T05:06:05.045Z,100356.36
2023-02-23T05:08:33.218Z,100359.00
2023-02-23T05:11:04.367Z,100361.06
2023-02-23T05:13:33.267Z,100362.56
2023-02-23T05:16:01.513Z,100371.71
2023-02-23T05:18:30.128Z,100371.05
2023-02-23T05:21:07.413Z,100373.20
2023-02-23T05:23:36.141Z,100375.09
2023-02-23T05:26:06.540Z,100378.93
2023-02-23T05:28:36.610Z,100382.91
2023-02-23T05:31:05.468Z,100386.46
2023-02-23T05:33:46.005Z,100390.09
2023-02-23T05:36:17.683Z,100396.33
2023-02-23T05:38:47.374Z,100397.40
2023-02-23T05:41:35.521Z,100403.48
2023-02-23T05:44:03.895Z,100403.98
2023-02-23T05:46:32.435Z,100409.23
2023-02-23T05:49:02.811Z,100414.80
2023-02-23T05:51:32.318Z,100419.37
2023-02-23T05:54:00.897Z,100426.70
2023-02-23T05:56:29.591Z,100429.15
2023-02-23T05:58:58.069Z,100434.75
2023-02-23T06:01:26.863Z,100434.20
2023-02-23T06:04:06.369Z,100439.84
2023-02-23T06:06:36.219Z,100444.77
2023-02-23T06:09:11.052Z,100443.77
2023-02-23T06:11:41.041Z,100448.04
2023-02-23T06:14:09.145Z,100448.80
2023-02-23T06:16:38.352Z,100453.53
2023-02-23T06:19:09.491Z,100456.56
2023-02-23T06:21:37.678Z,100456.26
2023-02-23T06:24:06.817Z,100454.83
2023-02-23T06:26:35.675Z,100456.92
2023-02-23T06:29:04.011Z,100459.16
2023-02-23T06:31:33.097Z,100463.23
2023-02-23T06:34:03.526Z,100461.20
2023-02-23T06:36:32.576Z,100465.13
2023-02-23T06:39:07.079Z,100466.67
2023-02-23T06:41:36.362Z,100465.80
2023-02-23T06:44:05.375Z,100464.55
2023-02-23T06:46:34.023Z,100467.03
2023-02-23T06:49:02.548Z,100470.49
2023-02-23T06:51:31.232Z,100473.95
2023-02-23T06:53:59.407Z,100472.77
2023-02-23T06:56:27.891Z,100469.49
2023-02-23T06:58:57.501Z,100472.71
2023-02-23T07:01:25.570Z,100475.42
2023-02-23T07:03:54.037Z,100478.02
2023-02-23T07:06:22.127Z,100477.65
2023-02-23T07:08:50.608Z,100476.98
2023-02-23T07:11:19.872Z,100476.55
2023-02-23T07:13:48.267Z,100482.68
2023-02-23T07:16:16.673Z,100485.85
2023-02-23T07:18:44.953Z,100482.23
2023-02-23T07:21:13.330Z,100486.52
2023-02-23T07:23:41.506Z,100481.65
2023-02-23T07:26:10.605Z,100483.06
2023-02-23T07:28:39.380Z,100484.73
2023-02-23T07:31:07.620Z,100481.79
2023-02-23T07:33:35.972Z,100484.39
2023-02-23T07:36:08.967Z,100484.80
2023-02-23T07:38:37.528Z,100487.25
2023-02-23T07:41:05.969Z,100489.17
2023-02-23T07:43:34.868Z,100491.46
2023-02-23T07:46:03.320Z,100493.41
2023-02-23T07:48:32.384Z,100492.33
2023-02-23T07:51:00.969Z,100490.25
2023-02-23T07:53:29.621Z,100495.31
2023-02-23T07:55:59.070Z,100494.60
2023-02-23T07:58:27.951Z,100495.04
2023-02-23T08:00:56.960Z,100494.59
2023-02-23T08:03:24.978Z,100495.77
2023-02-23T08:05:53.827Z,100495.55
2023-02-23T08:08:22.500Z,100494.61
2023-02-23T08:10:51.288Z,100496.59
2023-02-23T08:13:20.999Z,100498.41
2023-02-23T08:15:49.383Z,100502.76
2023-02-23T08:18:22.074Z,100505.65
2023-02-23T08:20:50.853Z,100502.75
2023-02-23T08:23:19.046Z,100501.42
2023-02-23T08:25:47.204Z,100499.80
2023-02-23T08:28:15.482Z,100500.36
2023-02-23T08:30:44.461Z,100497.36
2023-02-23T08:33:12.873Z,100498.85
2023-02-23T08:35:41.641Z,100500.33
2023-02-23T08:38:09.834Z,100502.94
2023-02-23T08:40:38.046Z,100499.76
2023-02-23T08:43:07.811Z,100493.73
2023-02-23T08:45:38.783Z,100497.80
2023-02-23T08:48:07.877Z,100494.14
2023-02-23T08:50:36.127Z,100497.33
2023-02-23T08:53:05.554Z,100498.49
2023-02-23T08:55:38.425Z,100498.27
2023-02-23T08:58:10.722Z,100498.63
2023-02-23T09:00:41.728Z,100498.99
2023-02-23T09:03:11.798Z,100502.33
2023-02-23T09:05:48.475Z,100503.94
2023-02-23T09:08:16.740Z,100508.53
2023-02-23T09:10:45.196Z,100512.39
2023-02-23T09:13:17.694Z,100514.61
2023-02-23T09:15:51.919Z,100514.27
2023-02-23T09:18:20.035Z,100510.63
2023-02-23T09:20:50.224Z,100506.52
2023-02-23T09:23:18.411Z,100511.81
2023-02-23T09:25:46.554Z,100516.48
2023-02-23T09:28:16.747Z,100515.77
2023-02-23T09:30:45.284Z,100515.90
2023-02-23T09:33:13.662Z,100516.92
2023-02-23T09:35:42.329Z,100513.97
2023-02-23T09:38:10.799Z,100512.07
2023-02-23T09:40:47.521Z,100507.52
2023-02-23T09:43:33.866Z,100511.55
2023-02-23T09:46:12.341Z,100511.77
2023-02-23T09:48:40.840Z,100511.48
2023-02-23T09:51:09.186Z,100511.35
2023-02-23T09:53:45.058Z,100516.28
2023-02-23T09:56:22.004Z,100511.21
2023-02-23T09:58:50.476Z,100505.06
2023-02-23T10:01:42.636Z,100505.77
2023-02-23T10:04:13.751Z,100501.39
2023-02-23T10:06:43.535Z,100498.01
2023-02-23T10:09:17.784Z,100498.09
2023-02-23T10:11:57.694Z,100500.61
2023-02-23T10:15:11.371Z,100503.04
2023-02-23T10:18:04.182Z,100495.61
2023-02-23T10:20:44.123Z,100488.63
2023-02-23T10:23:17.281Z,100490.05
2023-02-23T10:25:48.094Z,100488.65
2023-02-23T10:28:21.687Z,100488.46
2023-02-23T10:30:50.496Z,100488.48
2023-02-23T10:33:35.202Z,100484.79
2023-02-23T10:36:35.519Z,100485.50
2023-02-23T10:39:07.855Z,100480.47
2023-02-23T10:41:36.352Z,100483.61
2023-02-23T10:44:16.286Z,100484.48
2023-02-23T10:46:49.942Z,100481.88
2023-02-23T10:49:22.630Z,100481.33
2023-02-23T10:51:58.332Z,100478.76
2023-02-23T10:54:36.357Z,100480.89
2023-02-23T10:57:05.872Z,100479.34
2023-02-23T10:59:35.906Z,100476.09
2023-02-23T11:02:24.399Z,100475.64
2023-02-23T11:04:57.030Z,100471.73
2023-02-23T11:07:35.439Z,100472.88
2023-02-23T11:10:26.514Z,100473.66
2023-02-23T11:12:57.126Z,100468.48
2023-02-23T11:15:48.602Z,100471.86
2023-02-23T11:18:23.592Z,100476.80
2023-02-23T11:20:52.508Z,100473.54
2023-02-23T11:23:31.983Z,100473.68
2023-02-23T11:26:02.285Z,100474.50
2023-02-23T11:28:33.996Z,100473.15
2023-02-23T11:31:19.202Z,100473.95
2023-02-23T11:33:48.518Z,100479.20
2023-02-23T11:36:24.655Z,100469.63
2023-02-23T11:39:22.908Z,100470.13
2023-02-23T11:42:25.643Z,100466.46
2023-02-23T11:45:05.568Z,100471.06
2023-02-23T11:47:35.280Z,100470.23
2023-02-23T11:50:03.860Z,100476.05
2023-02-23T11:52:35.672Z,100475.16
2023-02-23T11:55:07.216Z,100471.17
2023-02-23T11:57:36.028Z,100469.74
2023-02-23T12:00:13.145Z,100469.20
2023-02-23T12:03:00.030Z,100466.92
2023-02-23T12:05:30.253Z,100466.95
2023-02-23T12:08:08.409Z,100467.00
2023-02-23T12:10:39.307Z,100465.73
2023-02-23T12:13:07.771Z,100462.84
2023-02-23T12:15:56.539Z,100458.59
2023-02-23T12:18:45.970Z,100462.22
2023-02-23T12:21:36.690Z,100457.14
2023-02-23T12:24:08.143Z,100450.48
2023-02-23T12:27:06.438Z,100449.86
2023-02-23T12:30:07.631Z,100444.41
2023-02-23T12:32:53.977Z,100443.46
2023-02-23T12:35:29.560Z,100444.81
2023-02-23T12:38:46.109Z,100450.02
2023-02-23T12:41:16.580Z,100442.66
2023-02-23T12:44:03.572Z,100441.41
2023-02-23T12:46:35.691Z,100439.30
2023-02-23T12:49:14.108Z,100434.78
2023-02-23T12:51:47.693Z,100434.54
2023-02-23T12:54:16.032Z,100426.83
2023-02-23T12:56:53.246Z,100427.36
2023-02-23T12:59:39.915Z,100422.30
2023-02-23T13:02:47.661Z,100421.60
2023-02-23T13:05:31.907Z,100415.50
2023-02-23T13:08:22.640Z,100411.70
2023-02-23T13:11:07.999Z,100404.58
2023-02-23T13:13:50.877Z,100402.48
2023-02-23T13:16:24.246Z,100399.62
2023-02-23T13:19:32.527Z,100398.73
2023-02-23T13:22:32.424Z,100389.02
2023-02-23T13:25:04.624Z,100389.99
2023-02-23T13:27:38.713Z,100388.33
2023-02-23T13:30:10.866Z,100388.05
2023-02-23T13:32:39.434Z,100384.67
2023-02-23T13:35:13.756Z,100379.80
2023-02-23T13:37:56.050Z,100377.63
2023-02-23T13:40:31.932Z,100378.02
2023-02-23T13:43:07.011Z,100375.33
2023-02-23T13:45:59.792Z,100374.21
2023-02-23T13:48:35.162Z,100376.16
2023-02-23T13:51:31.784Z,100377.75
2023-02-23T13:54:05.995Z,100377.78
2023-02-23T13:56:42.556Z,100377.55
2023-02-23T13:59:19.926Z,100375.77
2023-02-23T14:01:50.873Z,100376.23
2023-02-23T14:04:27.889Z,100373.46
2023-02-23T14:07:05.866Z,100376.67
2023-02-23T14:09:36.813Z,100373.84
2023-02-23T14:12:19.330Z,100370.85
2023-02-23T14:14:47.438Z,100371.41
2023-02-23T14:17:20.001Z,100368.21
2023-02-23T14:20:17.826Z,100370.36
2023-02-23T14:23:19.243Z,100372.20
2023-02-23T14:26:09.607Z,100373.33
2023-02-23T14:28:40.947Z,100369.77
2023-02-23T14:31:16.164Z,100369.17
2023-02-23T14:33:48.728Z,100366.42
2023-02-23T14:36:24.331Z,100367.23
2023-02-23T14:39:00.707Z,100370.54
2023-02-23T14:41:55.634Z,100366.12
2023-02-23T14:44:31.787Z,100368.23
2023-02-23T14:47:06.811Z,100370.80
2023-02-23T14:49:46.047Z,100368.20
2023-02-23T14:52:44.517Z,100368.67
2023-02-23T14:55:12.534Z,100368.87
2023-02-23T14:57:42.347Z,100372.27
2023-02-23T15:00:28.096Z,100376.52
2023-02-23T15:03:09.423Z,100371.56
2023-02-23T15:05:59.113Z,100370.77
2023-02-23T15:08:29.542Z,100366.92
2023-02-23T15:11:05.497Z,100369.69
2023-02-23T15:16:09.461Z,100357.52
2023-02-23T15:18:39.116Z,100360.94
2023-02-23T15:21:13.964Z,100362.65
2023-02-23T15:23:48.136Z,100362.40
2023-02-23T15:26:32.032Z,100359.40
2023-02-23T15:29:20.918Z,100365.24
2023-02-23T15:31:52.930Z,100364.49
2023-02-23T15:34:25.045Z,100369.79
2023-02-23T15:37:04.923Z,100366.15
2023-02-23T15:39:53.371Z,100364.48
2023-02-23T15:42:25.434Z,100359.13
2023-02-23T15:44:55.721Z,100352.46
2023-02-23T15:47:28.657Z,100350.16
2023-02-23T15:50:36.992Z,100346.36
2023-02-23T15:53:13.505Z,100347.48
2023-02-23T15:55:42.797Z,100339.92
2023-02-23T15:58:31.724Z,100344.23
2023-02-23T16:01:06.282Z,100353.61
2023-02-23T16:03:37.252Z,100353.57
2023-02-23T16:06:07.926Z,100351.05
2023-02-23T16:08:57.867Z,100353.46
2023-02-23T16:11:26.122Z,100365.55
2023-02-23T16:13:54.245Z,100367.27
2023-02-23T16:16:25.460Z,100363.12
2023-02-23T16:19:01.622Z,100365.21
2023-02-23T16:21:31.581Z,100359.87
2023-02-23T16:24:01.997Z,100360.14
2023-02-23T16:26:46.451Z,100364.71
2023-02-23T16:29:18.758Z,100362.41
2023-02-23T16:31:49.162Z,100355.73
2023-02-23T16:34:35.817Z,100351.55
2023-02-23T16:37:15.831Z,100351.29
2023-02-23T16:39:43.893Z,100348.39
2023-02-23T16:42:23.808Z,100346.35
2023-02-23T16:44:54.131Z,100336.68
2023-02-23T16:47:22.614Z,100335.88
2023-02-23T16:49:51.546Z,100333.52
2023-02-23T16:52:22.468Z,100340.40
2023-02-23T16:54:55.319Z,100337.48
2023-02-23T16:57:25.808Z,100332.29
2023-02-23T16:59:53.953Z,100330.89
2023-02-23T17:02:24.678Z,100327.09
2023-02-23T17:04:59.147Z,100329.24
2023-02-23T17:07:27.673Z,100335.15
2023-02-23T17:09:55.845Z,100327.98
2023-02-23T17:12:26.215Z,100321.27
2023-02-23T17:14:56.198Z,100330.83
2023-02-23T17:17:24.514Z,100328.59
2023-02-23T17:19:52.640Z,100310.38
2023-02-23T17:22:22.887Z,100318.44
2023-02-23T17:24:51.135Z,100317.09
2023-02-23T17:27:19.293Z,100311.28
2023-02-23T17:29:47.336Z,100305.08
2023-02-23T17:32:16.537Z,100308.74
2023-02-23T17:34:45.176Z,100308.02
2023-02-23T17:37:14.569Z,100307.72
2023-02-23T17:39:42.866Z,100304.64
2023-02-23T17:42:11.243Z,100301.68
2023-02-23T17:44:39.655Z,100304.82
2023-02-23T17:47:08.253Z,100304.35
2023-02-23T17:49:36.483Z,100298.23
2023-02-23T17:52:04.587Z,100299.56
2023-02-23T17:54:32.939Z,100300.20
2023-02-23T17:57:01.527Z,100300.96
2023-02-23T17:59:29.870Z,100301.00
2023-02-23T18:01:58.351Z,100301.98
2023-02-23T18:04:26.468Z,100296.73
2023-02-23T18:06:56.885Z,100303.34
2023-02-23T18:09:24.982Z,100301.60
2023-02-23T18:11:53.324Z,100299.13
2023-02-23T18:14:21.820Z,100294.54
2023-02-23T18:16:50.291Z,100292.30
2023-02-23T18:19:19.375Z,100290.79
2023-02-23T18:21:47.580Z,100283.13
2023-02-23T18:24:17.123Z,100283.11
2023-02-23T18:26:46.551Z,100277.80
2023-02-23T18:29:15.139Z,100271.23
2023-02-23T18:31:48.281Z,100262.91
2023-02-23T18:34:16.776Z,100263.22
2023-02-23T18:36:45.037Z,100262.48
2023-02-23T18:39:16.528Z,100268.87
2023-02-23T18:41:46.805Z,100264.89
2023-02-23T18:44:16.691Z,100256.95
2023-02-23T18:46:47.595Z,100253.41
2023-02-23T18:49:17.465Z,100255.71
2023-02-23T18:51:48.903Z,100258.99
2023-02-23T18:54:18.788Z,100253.75
2023-02-23T18:56:47.737Z,100254.13
2023-02-23T18:59:16.268Z,100248.87
2023-02-23T19:01:46.784Z,100244.01
2023-02-23T19:04:15.279Z,100244.50
2023-02-23T19:06:44.424Z,100247.06
2023-02-23T19:09:14.554Z,100242.94
2023-02-23T19:11:44.876Z,100238.23
2023-02-23T19:14:16.959Z,100234.88
2023-02-23T19:16:45.577Z,100231.52
2023-02-23T19:19:16.091Z,100226.81
2023-02-23T19:21:45.532Z,100225.48
2023-02-23T19:24:14.183Z,100227.98
2023-02-23T19:26:42.448Z,100227.63
2023-02-23T19:29:10.656Z,100228.29
2023-02-23T19:31:39.168Z,100216.79
2023-02-23T19:34:10.125Z,100203.27
2023-02-23T19:36:40.240Z,100206.71
2023-02-23T19:39:15.873Z,100202.50
2023-02-23T19:41:45.874Z,100200.73
2023-02-23T19:44:20.796Z,100200.17
2023-02-23T19:46:50.155Z,100197.23
2023-02-23T19:49:18.273Z,100200.55
2023-02-23T19:51:50.891Z,100197.77
2023-02-23T19:54:20.095Z,100191.65
2023-02-23T19:56:50.032Z,100195.17
2023-02-23T19:59:18.479Z,100190.73
2023-02-23T20:01:51.561Z,100176.40
2023-02-23T20:04:19.923Z,100169.40
2023-02-23T20:06:50.437Z,100172.81
2023-02-23T20:09:20.600Z,100173.78
2023-02-23T20:11:49.813Z,100169.56
2023-02-23T20:14:18.665Z,100162.35
2023-02-23T20:16:48.367Z,100157.89
2023-02-23T20:19:16.465Z,100155.85
2023-02-23T20:21:45.097Z,100155.76
2023-02-23T20:24:13.291Z,100158.52
2023-02-23T20:26:42.798Z,100154.42
2023-02-23T20:29:14.201Z,100151.80
2023-02-23T20:31:50.820Z,100150.44
2023-02-23T20:34:22.796Z,100146.83
2023-02-23T20:36:52.853Z,100142.34
2023-02-23T20:39:24.548Z,100137.00
2023-02-23T20:41:53.800Z,100129.30
2023-02-23T20:44:23.098Z,100129.94
2023-02-23T20:46:52.906Z,100125.09
2023-02-23T20:49:22.865Z,100122.17
2023-02-23T20:51:50.902Z,100121.19
2023-02-23T20:54:19.556Z,100114.83
2023-02-23T20:57:07.784Z,100111.24
2023-02-23T20:59:39.532Z,100115.05
2023-02-23T21:02:08.478Z,100113.00
2023-02-23T21:04:42.565Z,100112.39
2023-02-23T21:07:10.771Z,100109.25
2023-02-23T21:09:41.919Z,100104.01
2023-02-23T21:12:10.428Z,100101.60
2023-02-23T21:14:38.888Z,100101.88
2023-02-23T21:17:06.918Z,100103.90
2023-02-23T21:19:36.440Z,100099.38
2023-02-23T21:22:04.976Z,100095.73
2023-02-23T21:24:34.803Z,100093.27
2023-02-23T21:27:05.420Z,100089.73
2023-02-23T21:29:34.278Z,100085.89
2023-02-23T21:32:02.477Z,100086.10
2023-02-23T21:34:30.807Z,100085.02
2023-02-23T21:37:09.923Z,100078.17
2023-02-23T21:39:42.132Z,100078.02
2023-02-23T21:42:10.630Z,100077.78
2023-02-23T21:44:39.470Z,100070.83
2023-02-23T21:47:07.767Z,100069.30
2023-02-23T21:49:35.947Z,100065.57
2023-02-23T21:52:07.418Z,100065.34
2023-02-23T21:54:36.771Z,100059.91
2023-02-23T21:57:04.860Z,100050.98
2023-02-23T21:59:34.598Z,100051.84
2023-02-23T22:02:02.871Z,100058.72
2023-02-23T22:04:31.920Z,100063.62
2023-02-23T22:07:00.192Z,100059.48
2023-02-23T22:09:28.924Z,100054.19
2023-02-23T22:11:57.278Z,100053.08
2023-02-23T22:14:27.279Z,100049.02
2023-02-23T22:16:55.960Z,100045.02
2023-02-23T22:19:24.037Z,100040.87
2023-02-23T22:21:52.227Z,100033.94
2023-02-23T22:24:20.521Z,100028.33
2023-02-23T22:26:54.924Z,100020.77
2023-02-23T22:29:24.411Z,100024.11
2023-02-23T22:31:53.237Z,100014.14
2023-02-23T22:34:21.699Z,100013.71
2023-02-23T22:36:50.303Z,100010.95
2023-02-23T22:39:19.205Z,100010.77
2023-02-23T22:41:47.490Z,100007.67
2023-02-23T22:44:19.415Z,100004.79
2023-02-23T22:46:50.340Z,100009.55
2023-02-23T22:49:20.290Z,100002.73
2023-02-23T22:51:48.776Z,99999.81
2023-02-23T22:54:17.658Z,99995.16
2023-02-23T22:56:47.078Z,99991.08
2023-02-23T22:59:17.760Z,99988.80
2023-02-23T23:01:49.109Z,99983.77
2023-02-23T23:04:19.613Z,99976.95
2023-02-23T23:06:47.818Z,99976.91
2023-02-23T23:09:21.244Z,99973.18
2023-02-23T23:11:51.050Z,99970.67
2023-02-23T23:14:25.215Z,99968.77
2023-02-23T23:16:55.317Z,99962.09
2023-02-23T23:19:24.461Z,99958.14
2023-02-23T23:21:57.391Z,99953.08
2023-02-23T23:24:27.563Z,99951.77
2023-02-23T23:26:56.675Z,99946.89
2023-02-23T23:29:26.002Z,99939.65
2023-02-23T23:31:57.387Z,99937.81
2023-02-23T23:34:25.794Z,99941.07
2023-02-23T23:37:01.068Z,99935.85
2023-02-23T23:39:31.272Z,99932.15
2023-02-23T23:42:03.930Z,99925.61
2023-02-23T23:44:33.945Z,99921.77
2023-02-23T23:47:05.484Z,99920.59
2023-02-23T23:49:38.696Z,99916.55
2023-02-23T23:52:08.414Z,99908.73
2023-02-23T23:54:42.947Z,99905.48
2023-02-23T23:57:13.910Z,99897.25
2023-02-23T23:59:46.307Z,99889.61
